Bookmark and Share
Track history (hours):
 

Zim Pacific

Last reported at 2014-Apr-18 15:17 UTC. Time now 2014-Apr-19 09:34 UTC.
Position N 22°18' E 114°06'.

Length 254 m; draft 10 m.

Type: Ship. MMSI: 636091518.

NotesDate/timePositionNaut miles runAvg speedWind from/ knotsBaromVisibWave heightAir tempDewpointWater temp
2014-Apr-18 15:17N 22°18' E 114°06'19 2.5
2014-Apr-18 07:27N 22°32' E 113°51'0 0.0
2014-Apr-18 06:26N 22°32' E 113°51'0 0.0
2014-Apr-18 05:32N 22°32' E 113°51'0 0.0
2014-Apr-18 04:33N 22°32' E 113°51'0 0.0
2014-Apr-18 02:04N 22°32' E 113°51'0 0.0
2014-Apr-17 21:22N 22°32' E 113°51'0 0.0
2014-Apr-17 20:15N 22°32' E 113°51'0 0.2
2014-Apr-17 18:33N 22°32' E 113°51'8 7.9
2014-Apr-17 17:33N 22°24' E 113°54'15614.1
2014-Apr-17 06:33N 22°46' E 116°40'1817.5
2014-Apr-17 05:33N 22°54' E 116°57'1817.8
2014-Apr-17 04:33N 23°04' E 117°13'12217.2
2014-Apr-16 21:28N 24°14' E 119°02'34417.2
2014-Apr-16 01:28N 28°54' E 122°45'3617.9
2014-Apr-15 23:27N 29°30' E 122°54'9616.3
2014-Apr-15 17:32N 31°05' E 122°38'4414.4
2014-Apr-15 14:27N 31°17' E 121°48'10 5.5
2014-Apr-15 12:34N 31°22' E 121°37'2 1.8
2014-Apr-15 11:30N 31°23' E 121°35'0 0.0
2014-Apr-15 10:30N 31°23' E 121°35'0 0.0
2014-Apr-15 09:29N 31°23' E 121°35'0 0.0
2014-Apr-15 06:33N 31°23' E 121°35'0 0.0
2014-Apr-14 23:33N 31°23' E 121°35'0 0.0
2014-Apr-14 21:33N 31°23' E 121°35'0 0.0
2014-Apr-14 20:33N 31°23' E 121°35'3 0.9
2014-Apr-14 17:29N 31°22' E 121°38'19 9.6
2014-Apr-14 15:33N 31°15' E 121°58'93 9.3
2014-Apr-14 05:33N 29°47' E 122°33'27 3.8
2014-Apr-13 22:33N 29°53' E 122°03'0 0.0
2014-Apr-13 21:26N 29°53' E 122°03'0 0.1
2014-Apr-13 20:32N 29°53' E 122°03'7 6.7
2014-Apr-13 19:33N 29°54' E 122°11'1110.9
2014-Apr-13 18:32N 29°46' E 122°18'9 9.2
2014-Apr-13 17:33N 29°39' E 122°25'4 3.8
2014-Apr-13 16:31N 29°35' E 122°23'0 0.0
2014-Apr-13 15:31N 29°36' E 122°23'0 0.3
2014-Apr-13 14:30N 29°36' E 122°23'0 0.0
2014-Apr-13 12:30N 29°36' E 122°23'0 0.1
2014-Apr-13 11:11N 29°36' E 122°23'0 0.1
2014-Apr-13 10:22N 29°36' E 122°23'6 7.8
2014-Apr-13 09:33N 29°31' E 122°28'20 9.8
2014-Apr-13 07:31N 29°12' E 122°36'32012.6
2014-Apr-12 06:11N 24°41' E 119°25'914.1
2014-Apr-12 05:33N 24°36' E 119°17'1514.8
2014-Apr-12 04:33N 24°27' E 119°03'1615.7
2014-Apr-12 03:32N 24°20' E 118°48'1515.7
2014-Apr-12 02:34N 24°14' E 118°32'1515.1
2014-Apr-12 01:33N 24°15' E 118°15'1413.3
2014-Apr-12 00:33N 24°25' E 118°05'7 6.9
2014-Apr-11 23:31N 24°27' E 117°58'0 0.0
2014-Apr-11 22:31N 24°27' E 117°58'0 0.0
2014-Apr-11 21:31N 24°27' E 117°58'0 0.0
2014-Apr-11 19:32N 24°27' E 117°58'0 0.0
2014-Apr-11 16:25N 24°27' E 117°58'0 0.0
2014-Apr-11 15:19N 24°27' E 117°58'0 0.0
2014-Apr-11 10:29N 24°27' E 117°58'9 9.1
2014-Apr-11 09:32N 24°24' E 118°07'1313.3
2014-Apr-11 08:34N 24°14' E 118°16'1313.3
2014-Apr-11 07:33N 24°01' E 118°19'1717.5
2014-Apr-11 06:34N 23°47' E 118°08'1917.4
2014-Apr-11 05:29N 23°32' E 117°55'1617.2
2014-Apr-11 04:33N 23°20' E 117°44'2316.5
2014-Apr-11 03:09N 22°59' E 117°33'1017.0
2014-Apr-11 02:33N 22°50' E 117°28'1716.7
2014-Apr-11 01:32N 22°35' E 117°19'  

Dump ship's entire track history

sailing weather and tide predictions

Zim Pacific — A8OZ4 — position and weather